sensor_id;sensor_type;location;lat;lon;timestamp;pressure;altitude;pressure_sealevel;temperature;humidity
7170;BME280;3626;42.656;23.312;2023-05-23T00:00:00;94464.78;;;10.32;100.00
7170;BME280;3626;42.656;23.312;2023-05-23T00:00:07;94468.19;;;10.33;100.00
7170;BME280;3626;42.656;23.312;2023-05-23T00:00:13;94464.78;;;10.32;100.00
7170;BME280;3626;42.656;23.312;2023-05-23T00:00:19;94464.78;;;10.32;100.00
7170;BME280;3626;42.656;23.312;2023-05-23T00:00:26;94461.41;;;10.32;100.00
7170;BME280;3626;42.656;23.312;2023-05-23T00:00:37;94463.38;;;10.30;100.00
7170;BME280;3626;42.656;23.312;2023-05-23T00:00:43;94462.56;;;10.29;100.00
7170;BME280;3626;42.656;23.312;2023-05-23T00:00:49;94470.13;;;10.31;100.00
7170;BME280;3626;42.656;23.312;2023-05-23T00:00:56;94464.97;;;10.31;100.00
7170;BME280;3626;42.656;23.312;2023-05-23T00:01:03;94466.75;;;10.30;100.00
7170;BME280;3626;42.656;23.312;2023-05-23T00:01:11;94471.91;;;10.30;100.00
7170;BME280;3626;42.656;23.312;2023-05-23T00:01:19;94464.97;;;10.31;100.00
7170;BME280;3626;42.656;23.312;2023-05-23T00:01:25;94465.16;;;10.29;100.00
7170;BME280;3626;42.656;23.312;2023-05-23T00:01:32;94460.97;;;10.28;100.00
7170;BME280;3626;42.656;23.312;2023-05-23T00:01:38;94464.50;;;10.27;100.00
7170;BME280;3626;42.656;23.312;2023-05-23T00:01:44;94460.13;;;10.27;100.00
7170;BME280;3626;42.656;23.312;2023-05-23T00:01:51;94459.34;;;10.27;100.00
7170;BME280;3626;42.656;23.312;2023-05-23T00:01:59;94463.53;;;10.28;100.00
7170;BME280;3626;42.656;23.312;2023-05-23T00:02:06;94464.50;;;10.27;100.00
7170;BME280;3626;42.656;23.312;2023-05-23T00:02:13;94461.13;;;10.26;100.00
7170;BME280;3626;42.656;23.312;2023-05-23T00:02:21;94464.50;;;10.27;100.00
7170;BME280;3626;42.656;23.312;2023-05-23T00:02:27;94464.50;;;10.27;100.00
7170;BME280;3626;42.656;23.312;2023-05-23T00:02:34;94466.28;;;10.26;100.00
7170;BME280;3626;42.656;23.312;2023-05-23T00:02:40;94462.09;;;10.25;100.00
7170;BME280;3626;42.656;23.312;2023-05-23T00:02:47;94464.66;;;10.25;100.00
7170;BME280;3626;42.656;23.312;2023-05-23T00:02:54;94462.88;;;10.26;100.00
7170;BME280;3626;42.656;23.312;2023-05-23T00:02:59;94461.28;;;10.25;100.00
7170;BME280;3626;42.656;23.312;2023-05-23T00:03:05;94460.50;;;10.24;100.00
7170;BME280;3626;42.656;23.312;2023-05-23T00:03:12;94465.66;;;10.24;100.00
7170;BME280;3626;42.656;23.312;2023-05-23T00:03:18;94463.88;;;10.25;100.00
7170;BME280;3626;42.656;23.312;2023-05-23T00:03:27;94459.66;;;10.24;100.00
7170;BME280;3626;42.656;23.312;2023-05-23T00:03:35;94466.44;;;10.25;100.00
7170;BME280;3626;42.656;23.312;2023-05-23T00:03:41;94459.50;;;10.25;100.00
7170;BME280;3626;42.656;23.312;2023-05-23T00:03:47;94468.84;;;10.26;100.00
7170;BME280;3626;42.656;23.312;2023-05-23T00:03:54;94459.34;;;10.27;100.00
7170;BME280;3626;42.656;23.312;2023-05-23T00:04:02;94459.34;;;10.27;100.00
7170;BME280;3626;42.656;23.312;2023-05-23T00:04:08;94467.06;;;10.27;100.00
7170;BME280;3626;42.656;23.312;2023-05-23T00:04:14;94460.13;;;10.27;100.00
7170;BME280;3626;42.656;23.312;2023-05-23T00:04:23;94461.91;;;10.27;100.00
7170;BME280;3626;42.656;23.312;2023-05-23T00:04:31;94464.50;;;10.27;100.00
7170;BME280;3626;42.656;23.312;2023-05-23T00:04:37;94463.53;;;10.28;100.00
7170;BME280;3626;42.656;23.312;2023-05-23T00:04:43;94464.50;;;10.27;100.00
7170;BME280;3626;42.656;23.312;2023-05-23T00:04:48;94459.34;;;10.27;100.00
7170;BME280;3626;42.656;23.312;2023-05-23T00:04:56;94467.88;;;10.27;100.00
7170;BME280;3626;42.656;23.312;2023-05-23T00:05:03;94466.91;;;10.29;100.00
7170;BME280;3626;42.656;23.312;2023-05-23T00:05:09;94463.53;;;10.28;100.00
7170;BME280;3626;42.656;23.312;2023-05-23T00:05:15;94458.38;;;10.28;100.00
7170;BME280;3626;42.656;23.312;2023-05-23T00:05:22;94463.53;;;10.28;100.00
7170;BME280;3626;42.656;23.312;2023-05-23T00:05:28;94465.16;;;10.29;100.00
7170;BME280;3626;42.656;23.312;2023-05-23T00:05:34;94460.13;;;10.27;100.00
7170;BME280;3626;42.656;23.312;2023-05-23T00:05:40;94467.88;;;10.27;100.00
7170;BME280;3626;42.656;23.312;2023-05-23T00:05:46;94462.72;;;10.27;100.00
7170;BME280;3626;42.656;23.312;2023-05-23T00:05:53;94461.91;;;10.27;100.00
7170;BME280;3626;42.656;23.312;2023-05-23T00:06:01;94465.28;;;10.27;100.00
7170;BME280;3626;42.656;23.312;2023-05-23T00:06:07;94460.13;;;10.27;100.00
7170;BME280;3626;42.656;23.312;2023-05-23T00:06:13;94462.72;;;10.27;100.00
7170;BME280;3626;42.656;23.312;2023-05-23T00:06:19;94459.97;;;10.29;100.00
7170;BME280;3626;42.656;23.312;2023-05-23T00:06:25;94462.72;;;10.27;100.00
7170;BME280;3626;42.656;23.312;2023-05-23T00:06:31;94464.50;;;10.27;100.00
7170;BME280;3626;42.656;23.312;2023-05-23T00:06:38;94467.88;;;10.27;100.00
7170;BME280;3626;42.656;23.312;2023-05-23T00:06:44;94458.53;;;10.26;100.00
7170;BME280;3626;42.656;23.312;2023-05-23T00:06:51;94459.34;;;10.27;100.00
7170;BME280;3626;42.656;23.312;2023-05-23T00:06:57;94466.13;;;10.28;100.00
7170;BME280;3626;42.656;23.312;2023-05-23T00:07:04;94458.53;;;10.26;100.00
7170;BME280;3626;42.656;23.312;2023-05-23T00:07:10;94460.31;;;10.26;100.00
7170;BME280;3626;42.656;23.312;2023-05-23T00:07:16;94461.13;;;10.26;100.00
7170;BME280;3626;42.656;23.312;2023-05-23T00:07:22;94462.09;;;10.25;100.00
7170;BME280;3626;42.656;23.312;2023-05-23T00:07:28;94462.09;;;10.25;100.00
7170;BME280;3626;42.656;23.312;2023-05-23T00:07:36;94468.03;;;10.26;100.00
7170;BME280;3626;42.656;23.312;2023-05-23T00:07:42;94465.66;;;10.24;100.00
7170;BME280;3626;42.656;23.312;2023-05-23T00:07:48;94464.81;;;10.24;100.00
7170;BME280;3626;42.656;23.312;2023-05-23T00:07:54;94456.44;;;10.22;100.00
7170;BME280;3626;42.656;23.312;2023-05-23T00:08:00;94461.59;;;10.22;100.00
7170;BME280;3626;42.656;23.312;2023-05-23T00:08:06;94457.56;;;10.19;100.00
7170;BME280;3626;42.656;23.312;2023-05-23T00:08:12;94460.78;;;10.21;100.00
7170;BME280;3626;42.656;23.312;2023-05-23T00:08:18;94458.38;;;10.20;100.00
7170;BME280;3626;42.656;23.312;2023-05-23T00:08:24;94455.16;;;10.18;100.00
7170;BME280;3626;42.656;23.312;2023-05-23T00:08:31;94457.72;;;10.18;100.00
7170;BME280;3626;42.656;23.312;2023-05-23T00:08:37;94455.16;;;10.18;100.00
7170;BME280;3626;42.656;23.312;2023-05-23T00:08:43;94449.19;;;10.17;100.00
7170;BME280;3626;42.656;23.312;2023-05-23T00:08:49;94460.31;;;10.18;100.00
7170;BME280;3626;42.656;23.312;2023-05-23T00:08:55;94456.13;;;10.17;100.00
7170;BME280;3626;42.656;23.312;2023-05-23T00:09:01;94454.34;;;10.17;100.00
7170;BME280;3626;42.656;23.312;2023-05-23T00:09:07;94451.78;;;10.17;100.00
7170;BME280;3626;42.656;23.312;2023-05-23T00:09:13;94450.78;;;10.18;100.00
7170;BME280;3626;42.656;23.312;2023-05-23T00:09:19;94455.16;;;10.18;100.00
7170;BME280;3626;42.656;23.312;2023-05-23T00:09:25;94456.75;;;10.19;100.00
7170;BME280;3626;42.656;23.312;2023-05-23T00:09:31;94455.97;;;10.18;100.00
7170;BME280;3626;42.656;23.312;2023-05-23T00:09:37;94453.38;;;10.18;100.00
7170;BME280;3626;42.656;23.312;2023-05-23T00:09:43;94455.16;;;10.18;100.00
7170;BME280;3626;42.656;23.312;2023-05-23T00:09:49;94455.16;;;10.18;100.00
7170;BME280;3626;42.656;23.312;2023-05-23T00:09:55;94454.34;;;10.17;100.00
7170;BME280;3626;42.656;23.312;2023-05-23T00:10:01;94452.56;;;10.18;100.00
7170;BME280;3626;42.656;23.312;2023-05-23T00:10:08;94461.91;;;10.19;100.00
7170;BME280;3626;42.656;23.312;2023-05-23T00:10:14;94454.34;;;10.17;100.00
7170;BME280;3626;42.656;23.312;2023-05-23T00:10:21;94450.00;;;10.18;100.00
7170;BME280;3626;42.656;23.312;2023-05-23T00:10:27;94446.63;;;10.17;100.00
7170;BME280;3626;42.656;23.312;2023-05-23T00:10:33;94444.84;;;10.18;100.00
7170;BME280;3626;42.656;23.312;2023-05-23T00:10:38;94447.41;;;10.18;100.00
7170;BME280;3626;42.656;23.312;2023-05-23T00:10:44;94448.22;;;10.18;100.00
7170;BME280;3626;42.656;23.312;2023-05-23T00:10:50;94455.97;;;10.18;100.00
7170;BME280;3626;42.656;23.312;2023-05-23T00:10:56;94449.00;;;10.19;100.00
7170;BME280;3626;42.656;23.312;2023-05-23T00:11:02;94451.59;;;10.19;100.00
7170;BME280;3626;42.656;23.312;2023-05-23T00:11:08;94456.75;;;10.19;100.00
7170;BME280;3626;42.656;23.312;2023-05-23T00:11:14;94445.63;;;10.18;100.00
7170;BME280;3626;42.656;23.312;2023-05-23T00:11:21;94454.19;;;10.19;100.00
7170;BME280;3626;42.656;23.312;2023-05-23T00:11:31;94451.78;;;10.17;100.00
7170;BME280;3626;42.656;23.312;2023-05-23T00:11:37;94447.41;;;10.18;100.00
7170;BME280;3626;42.656;23.312;2023-05-23T00:11:43;94450.78;;;10.18;100.00
7170;BME280;3626;42.656;23.312;2023-05-23T00:11:49;94450.00;;;10.18;100.00
7170;BME280;3626;42.656;23.312;2023-05-23T00:11:55;94455.16;;;10.18;100.00
7170;BME280;3626;42.656;23.312;2023-05-23T00:12:01;94448.41;;;10.17;100.00
7170;BME280;3626;42.656;23.312;2023-05-23T00:12:08;94451.78;;;10.17;100.00
7170;BME280;3626;42.656;23.312;2023-05-23T00:12:14;94447.41;;;10.18;100.00
7170;BME280;3626;42.656;23.312;2023-05-23T00:12:20;94444.84;;;10.18;100.00
7170;BME280;3626;42.656;23.312;2023-05-23T00:12:26;94449.00;;;10.19;100.00
7170;BME280;3626;42.656;23.312;2023-05-23T00:12:33;94447.41;;;10.18;100.00
7170;BME280;3626;42.656;23.312;2023-05-23T00:12:39;94451.59;;;10.19;100.00
7170;BME280;3626;42.656;23.312;2023-05-23T00:12:46;94449.81;;;10.19;100.00
7170;BME280;3626;42.656;23.312;2023-05-23T00:12:52;94449.00;;;10.19;100.00
7170;BME280;3626;42.656;23.312;2023-05-23T00:12:58;94441.28;;;10.19;100.00
7170;BME280;3626;42.656;23.312;2023-05-23T00:13:04;94448.22;;;10.18;100.00
7170;BME280;3626;42.656;23.312;2023-05-23T00:13:13;94446.44;;;10.19;100.00
7170;BME280;3626;42.656;23.312;2023-05-23T00:13:19;94449.00;;;10.19;100.00
7170;BME280;3626;42.656;23.312;2023-05-23T00:13:25;94442.25;;;10.18;100.00
7170;BME280;3626;42.656;23.312;2023-05-23T00:13:31;94443.25;;;10.17;100.00
7170;BME280;3626;42.656;23.312;2023-05-23T00:13:40;94451.94;;;10.16;100.00
7170;BME280;3626;42.656;23.312;2023-05-23T00:13:46;94445.16;;;10.15;100.00
7170;BME280;3626;42.656;23.312;2023-05-23T00:13:52;94446.94;;;10.14;100.00
7170;BME280;3626;42.656;23.312;2023-05-23T00:13:58;94446.16;;;10.14;100.00
7170;BME280;3626;42.656;23.312;2023-05-23T00:14:05;94445.53;;;10.12;100.00
7170;BME280;3626;42.656;23.312;2023-05-23T00:14:13;94444.72;;;10.11;100.00
7170;BME280;3626;42.656;23.312;2023-05-23T00:14:19;94444.72;;;10.11;100.00
7170;BME280;3626;42.656;23.312;2023-05-23T00:14:27;94447.31;;;10.11;100.00
7170;BME280;3626;42.656;23.312;2023-05-23T00:14:35;94448.91;;;10.12;100.00
7170;BME280;3626;42.656;23.312;2023-05-23T00:14:41;94449.88;;;10.11;100.00
7170;BME280;3626;42.656;23.312;2023-05-23T00:14:47;94450.69;;;10.12;100.00
7170;BME280;3626;42.656;23.312;2023-05-23T00:14:54;94450.69;;;10.12;100.00
7170;BME280;3626;42.656;23.312;2023-05-23T00:14:59;94450.69;;;10.12;100.00
7170;BME280;3626;42.656;23.312;2023-05-23T00:15:07;94444.72;;;10.11;100.00
7170;BME280;3626;42.656;23.312;2023-05-23T00:15:14;94444.72;;;10.11;100.00
7170;BME280;3626;42.656;23.312;2023-05-23T00:15:20;94449.06;;;10.11;100.00
7170;BME280;3626;42.656;23.312;2023-05-23T00:15:27;94443.91;;;10.11;100.00
7170;BME280;3626;42.656;23.312;2023-05-23T00:15:33;94442.16;;;10.11;100.00
7170;BME280;3626;42.656;23.312;2023-05-23T00:15:39;94451.63;;;10.11;100.00
7170;BME280;3626;42.656;23.312;2023-05-23T00:15:46;94449.88;;;10.11;100.00
7170;BME280;3626;42.656;23.312;2023-05-23T00:15:53;94444.72;;;10.11;100.00
7170;BME280;3626;42.656;23.312;2023-05-23T00:15:59;94447.31;;;10.11;100.00
7170;BME280;3626;42.656;23.312;2023-05-23T00:16:05;94455.84;;;10.12;100.00
7170;BME280;3626;42.656;23.312;2023-05-23T00:16:14;94452.47;;;10.11;100.00
7170;BME280;3626;42.656;23.312;2023-05-23T00:16:20;94450.69;;;10.12;100.00
7170;BME280;3626;42.656;23.312;2023-05-23T00:16:30;94443.91;;;10.11;100.00
7170;BME280;3626;42.656;23.312;2023-05-23T00:16:37;94450.69;;;10.12;100.00
7170;BME280;3626;42.656;23.312;2023-05-23T00:16:45;94445.53;;;10.12;100.00
7170;BME280;3626;42.656;23.312;2023-05-23T00:16:54;94453.25;;;10.12;100.00
7170;BME280;3626;42.656;23.312;2023-05-23T00:16:59;94449.88;;;10.11;100.00
7170;BME280;3626;42.656;23.312;2023-05-23T00:17:06;94448.91;;;10.12;100.00
7170;BME280;3626;42.656;23.312;2023-05-23T00:17:15;94445.53;;;10.12;100.00
7170;BME280;3626;42.656;23.312;2023-05-23T00:17:22;94451.47;;;10.12;100.00
7170;BME280;3626;42.656;23.312;2023-05-23T00:17:29;94448.91;;;10.12;100.00
7170;BME280;3626;42.656;23.312;2023-05-23T00:17:35;94451.47;;;10.12;100.00
7170;BME280;3626;42.656;23.312;2023-05-23T00:17:42;94447.13;;;10.13;100.00
7170;BME280;3626;42.656;23.312;2023-05-23T00:17:49;94450.69;;;10.12;100.00
7170;BME280;3626;42.656;23.312;2023-05-23T00:17:55;94443.75;;;10.12;100.00
7170;BME280;3626;42.656;23.312;2023-05-23T00:18:02;94449.69;;;10.13;100.00
7170;BME280;3626;42.656;23.312;2023-05-23T00:18:08;94450.69;;;10.12;100.00
7170;BME280;3626;42.656;23.312;2023-05-23T00:18:16;94447.31;;;10.11;100.00
7170;BME280;3626;42.656;23.312;2023-05-23T00:18:22;94447.44;;;10.10;100.00
7170;BME280;3626;42.656;23.312;2023-05-23T00:18:29;94451.63;;;10.11;100.00
7170;BME280;3626;42.656;23.312;2023-05-23T00:18:35;94450.03;;;10.10;100.00
7170;BME280;3626;42.656;23.312;2023-05-23T00:18:41;94443.91;;;10.11;100.00
7170;BME280;3626;42.656;23.312;2023-05-23T00:18:47;94450.69;;;10.12;100.00
7170;BME280;3626;42.656;23.312;2023-05-23T00:18:54;94450.69;;;10.12;100.00
7170;BME280;3626;42.656;23.312;2023-05-23T00:19:03;94443.91;;;10.11;100.00
7170;BME280;3626;42.656;23.312;2023-05-23T00:19:10;94456.78;;;10.11;100.00
7170;BME280;3626;42.656;23.312;2023-05-23T00:19:16;94447.44;;;10.10;100.00
7170;BME280;3626;42.656;23.312;2023-05-23T00:19:25;94448.44;;;10.09;100.00
7170;BME280;3626;42.656;23.312;2023-05-23T00:19:31;94448.44;;;10.09;100.00
7170;BME280;3626;42.656;23.312;2023-05-23T00:19:40;94447.63;;;10.08;100.00
7170;BME280;3626;42.656;23.312;2023-05-23T00:19:50;94452.78;;;10.08;100.00
7170;BME280;3626;42.656;23.312;2023-05-23T00:19:56;94451.97;;;10.08;100.00
7170;BME280;3626;42.656;23.312;2023-05-23T00:20:02;94451.19;;;10.07;100.00
7170;BME280;3626;42.656;23.312;2023-05-23T00:20:08;94448.59;;;10.07;100.00
7170;BME280;3626;42.656;23.312;2023-05-23T00:20:16;94452.13;;;10.06;100.00
7170;BME280;3626;42.656;23.312;2023-05-23T00:20:22;94446.97;;;10.06;100.00
7170;BME280;3626;42.656;23.312;2023-05-23T00:20:29;94449.56;;;10.06;100.00
7170;BME280;3626;42.656;23.312;2023-05-23T00:20:35;94454.72;;;10.06;100.00
7170;BME280;3626;42.656;23.312;2023-05-23T00:20:42;94452.31;;;10.05;100.00
7170;BME280;3626;42.656;23.312;2023-05-23T00:20:51;94445.56;;;10.04;100.00
7170;BME280;3626;42.656;23.312;2023-05-23T00:20:57;94450.72;;;10.04;100.00
7170;BME280;3626;42.656;23.312;2023-05-23T00:21:03;94453.28;;;10.04;100.00
7170;BME280;3626;42.656;23.312;2023-05-23T00:21:09;94451.69;;;10.02;100.00
7170;BME280;3626;42.656;23.312;2023-05-23T00:21:15;94449.25;;;10.01;100.00
7170;BME280;3626;42.656;23.312;2023-05-23T00:21:21;94450.06;;;10.01;100.00
7170;BME280;3626;42.656;23.312;2023-05-23T00:21:27;94450.06;;;10.01;100.00
7170;BME280;3626;42.656;23.312;2023-05-23T00:21:35;94452.81;;;10.00;100.00
7170;BME280;3626;42.656;23.312;2023-05-23T00:21:41;94450.22;;;10.00;100.00
7170;BME280;3626;42.656;23.312;2023-05-23T00:21:48;94451.22;;;9.99;100.00
7170;BME280;3626;42.656;23.312;2023-05-23T00:21:54;94446.84;;;9.99;100.00
7170;BME280;3626;42.656;23.312;2023-05-23T00:22:01;94447.66;;;10.00;100.00
7170;BME280;3626;42.656;23.312;2023-05-23T00:22:07;94453.00;;;9.98;100.00
7170;BME280;3626;42.656;23.312;2023-05-23T00:22:16;94452.00;;;9.99;100.00
7170;BME280;3626;42.656;23.312;2023-05-23T00:22:22;94447.66;;;10.00;100.00
7170;BME280;3626;42.656;23.312;2023-05-23T00:22:28;94451.03;;;10.00;100.00
7170;BME280;3626;42.656;23.312;2023-05-23T00:22:34;94448.47;;;10.00;100.00
7170;BME280;3626;42.656;23.312;2023-05-23T00:22:40;94450.06;;;10.01;100.00
7170;BME280;3626;42.656;23.312;2023-05-23T00:22:47;94456.00;;;10.02;100.00
7170;BME280;3626;42.656;23.312;2023-05-23T00:22:53;94452.63;;;10.01;100.00
7170;BME280;3626;42.656;23.312;2023-05-23T00:23:03;94447.47;;;10.01;100.00
7170;BME280;3626;42.656;23.312;2023-05-23T00:23:09;94445.69;;;10.02;100.00
7170;BME280;3626;42.656;23.312;2023-05-23T00:23:15;94454.41;;;10.01;100.00
7170;BME280;3626;42.656;23.312;2023-05-23T00:23:23;94441.38;;;10.02;100.00
7170;BME280;3626;42.656;23.312;2023-05-23T00:23:29;94449.91;;;10.03;100.00
7170;BME280;3626;42.656;23.312;2023-05-23T00:23:38;94448.13;;;10.04;100.00
7170;BME280;3626;42.656;23.312;2023-05-23T00:23:46;94444.75;;;10.03;100.00
7170;BME280;3626;42.656;23.312;2023-05-23T00:23:52;94448.94;;;10.04;100.00
7170;BME280;3626;42.656;23.312;2023-05-23T00:24:01;94449.72;;;10.05;100.00
7170;BME280;3626;42.656;23.312;2023-05-23T00:24:07;94446.19;;;10.06;100.00
7170;BME280;3626;42.656;23.312;2023-05-23T00:24:14;94444.41;;;10.06;100.00
7170;BME280;3626;42.656;23.312;2023-05-23T00:24:23;94446.97;;;10.06;100.00
7170;BME280;3626;42.656;23.312;2023-05-23T00:24:29;94451.34;;;10.06;100.00
7170;BME280;3626;42.656;23.312;2023-05-23T00:24:35;94449.56;;;10.06;100.00
7170;BME280;3626;42.656;23.312;2023-05-23T00:24:41;94449.56;;;10.06;100.00
7170;BME280;3626;42.656;23.312;2023-05-23T00:24:46;94452.13;;;10.06;100.00
7170;BME280;3626;42.656;23.312;2023-05-23T00:24:52;94451.34;;;10.06;100.00
7170;BME280;3626;42.656;23.312;2023-05-23T00:24:58;94450.34;;;10.07;100.00
7170;BME280;3626;42.656;23.312;2023-05-23T00:25:07;94449.41;;;10.08;100.00
7170;BME280;3626;42.656;23.312;2023-05-23T00:25:13;94443.44;;;10.07;100.00
7170;BME280;3626;42.656;23.312;2023-05-23T00:25:19;94451.19;;;10.07;100.00
7170;BME280;3626;42.656;23.312;2023-05-23T00:25:26;94449.41;;;10.08;100.00
7170;BME280;3626;42.656;23.312;2023-05-23T00:25:38;94447.63;;;10.08;100.00
7170;BME280;3626;42.656;23.312;2023-05-23T00:25:45;94449.41;;;10.08;100.00
7170;BME280;3626;42.656;23.312;2023-05-23T00:25:57;94448.44;;;10.09;100.00
7170;BME280;3626;42.656;23.312;2023-05-23T00:26:03;94449.22;;;10.09;100.00
7170;BME280;3626;42.656;23.312;2023-05-23T00:26:09;94448.44;;;10.09;100.00
7170;BME280;3626;42.656;23.312;2023-05-23T00:26:15;94440.69;;;10.09;100.00
7170;BME280;3626;42.656;23.312;2023-05-23T00:26:21;94451.81;;;10.09;100.00
7170;BME280;3626;42.656;23.312;2023-05-23T00:26:28;94446.81;;;10.08;100.00
7170;BME280;3626;42.656;23.312;2023-05-23T00:26:34;94451.19;;;10.07;100.00
7170;BME280;3626;42.656;23.312;2023-05-23T00:26:40;94445.84;;;10.09;100.00
7170;BME280;3626;42.656;23.312;2023-05-23T00:26:46;94448.44;;;10.09;100.00
7170;BME280;3626;42.656;23.312;2023-05-23T00:26:52;94445.84;;;10.09;100.00
7170;BME280;3626;42.656;23.312;2023-05-23T00:26:58;94444.25;;;10.08;100.00
7170;BME280;3626;42.656;23.312;2023-05-23T00:27:04;94443.28;;;10.09;100.00
7170;BME280;3626;42.656;23.312;2023-05-23T00:27:11;94445.84;;;10.09;100.00
7170;BME280;3626;42.656;23.312;2023-05-23T00:27:17;94451.81;;;10.09;100.00
7170;BME280;3626;42.656;23.312;2023-05-23T00:27:23;94451.81;;;10.09;100.00
7170;BME280;3626;42.656;23.312;2023-05-23T00:27:29;94443.09;;;10.10;100.00
7170;BME280;3626;42.656;23.312;2023-05-23T00:27:35;94445.66;;;10.10;100.00
7170;BME280;3626;42.656;23.312;2023-05-23T00:27:41;94448.25;;;10.10;100.00
7170;BME280;3626;42.656;23.312;2023-05-23T00:27:47;94445.66;;;10.10;100.00
7170;BME280;3626;42.656;23.312;2023-05-23T00:27:53;94446.47;;;10.11;100.00
7170;BME280;3626;42.656;23.312;2023-05-23T00:27:59;94444.72;;;10.11;100.00
7170;BME280;3626;42.656;23.312;2023-05-23T00:28:06;94443.91;;;10.11;100.00
7170;BME280;3626;42.656;23.312;2023-05-23T00:28:11;94438.75;;;10.11;100.00
7170;BME280;3626;42.656;23.312;2023-05-23T00:28:18;94443.91;;;10.11;100.00
7170;BME280;3626;42.656;23.312;2023-05-23T00:28:24;94438.75;;;10.11;100.00
7170;BME280;3626;42.656;23.312;2023-05-23T00:28:30;94443.91;;;10.11;100.00
7170;BME280;3626;42.656;23.312;2023-05-23T00:28:36;94441.31;;;10.11;100.00
7170;BME280;3626;42.656;23.312;2023-05-23T00:28:42;94443.09;;;10.10;100.00
7170;BME280;3626;42.656;23.312;2023-05-23T00:28:48;94445.66;;;10.10;100.00
7170;BME280;3626;42.656;23.312;2023-05-23T00:28:56;94443.91;;;10.11;100.00
7170;BME280;3626;42.656;23.312;2023-05-23T00:29:02;94442.28;;;10.10;100.00
7170;BME280;3626;42.656;23.312;2023-05-23T00:29:08;94438.75;;;10.11;100.00
7170;BME280;3626;42.656;23.312;2023-05-23T00:29:20;94443.91;;;10.11;100.00
7170;BME280;3626;42.656;23.312;2023-05-23T00:29:26;94439.72;;;10.10;100.00
7170;BME280;3626;42.656;23.312;2023-05-23T00:29:32;94447.31;;;10.11;100.00
7170;BME280;3626;42.656;23.312;2023-05-23T00:29:37;94447.31;;;10.11;100.00
7170;BME280;3626;42.656;23.312;2023-05-23T00:29:43;94449.88;;;10.11;100.00
7170;BME280;3626;42.656;23.312;2023-05-23T00:29:49;94446.47;;;10.11;100.00
7170;BME280;3626;42.656;23.312;2023-05-23T00:29:55;94439.56;;;10.11;100.00
7170;BME280;3626;42.656;23.312;2023-05-23T00:30:02;94449.06;;;10.11;100.00
7170;BME280;3626;42.656;23.312;2023-05-23T00:30:08;94440.50;;;10.10;100.00
7170;BME280;3626;42.656;23.312;2023-05-23T00:30:14;94444.72;;;10.11;100.00
7170;BME280;3626;42.656;23.312;2023-05-23T00:30:20;94442.16;;;10.11;100.00
7170;BME280;3626;42.656;23.312;2023-05-23T00:30:27;94442.16;;;10.11;100.00
7170;BME280;3626;42.656;23.312;2023-05-23T00:30:33;94448.25;;;10.10;100.00
7170;BME280;3626;42.656;23.312;2023-05-23T00:30:40;94445.53;;;10.12;100.00
7170;BME280;3626;42.656;23.312;2023-05-23T00:30:47;94446.47;;;10.11;100.00
7170;BME280;3626;42.656;23.312;2023-05-23T00:30:53;94442.16;;;10.11;100.00
7170;BME280;3626;42.656;23.312;2023-05-23T00:30:59;94437.78;;;10.12;100.00
7170;BME280;3626;42.656;23.312;2023-05-23T00:31:05;94443.91;;;10.11;100.00
7170;BME280;3626;42.656;23.312;2023-05-23T00:31:11;94441.97;;;10.13;100.00
7170;BME280;3626;42.656;23.312;2023-05-23T00:31:17;94438.59;;;10.12;100.00
7170;BME280;3626;42.656;23.312;2023-05-23T00:31:23;94440.38;;;10.12;100.00
7170;BME280;3626;42.656;23.312;2023-05-23T00:31:29;94442.94;;;10.12;100.00
7170;BME280;3626;42.656;23.312;2023-05-23T00:31:35;94441.31;;;10.11;100.00
7170;BME280;3626;42.656;23.312;2023-05-23T00:31:41;94442.94;;;10.12;100.00
7170;BME280;3626;42.656;23.312;2023-05-23T00:31:50;94435.22;;;10.12;100.00
7170;BME280;3626;42.656;23.312;2023-05-23T00:31:56;94439.56;;;10.11;100.00
7170;BME280;3626;42.656;23.312;2023-05-23T00:32:02;94447.13;;;10.13;100.00
7170;BME280;3626;42.656;23.312;2023-05-23T00:32:09;94439.38;;;10.13;100.00
7170;BME280;3626;42.656;23.312;2023-05-23T00:32:15;94448.09;;;10.12;100.00
7170;BME280;3626;42.656;23.312;2023-05-23T00:32:21;94449.69;;;10.13;100.00
7170;BME280;3626;42.656;23.312;2023-05-23T00:32:27;94440.38;;;10.12;100.00
7170;BME280;3626;42.656;23.312;2023-05-23T00:32:33;94448.91;;;10.12;100.00
7170;BME280;3626;42.656;23.312;2023-05-23T00:32:39;94440.38;;;10.12;100.00
7170;BME280;3626;42.656;23.312;2023-05-23T00:32:45;94446.31;;;10.12;100.00
7170;BME280;3626;42.656;23.312;2023-05-23T00:32:52;94441.31;;;10.11;100.00
7170;BME280;3626;42.656;23.312;2023-05-23T00:32:59;94441.31;;;10.11;100.00
7170;BME280;3626;42.656;23.312;2023-05-23T00:33:05;94443.75;;;10.12;100.00
7170;BME280;3626;42.656;23.312;2023-05-23T00:33:11;94448.91;;;10.12;100.00
7170;BME280;3626;42.656;23.312;2023-05-23T00:33:18;94438.59;;;10.12;100.00
7170;BME280;3626;42.656;23.312;2023-05-23T00:33:26;94443.09;;;10.10;100.00
7170;BME280;3626;42.656;23.312;2023-05-23T00:33:34;94441.31;;;10.11;100.00
7170;BME280;3626;42.656;23.312;2023-05-23T00:33:40;94440.38;;;10.12;100.00
7170;BME280;3626;42.656;23.312;2023-05-23T00:33:46;94445.53;;;10.12;100.00
7170;BME280;3626;42.656;23.312;2023-05-23T00:33:55;94438.91;;;10.09;100.00
7170;BME280;3626;42.656;23.312;2023-05-23T00:34:01;94444.88;;;10.10;100.00
7170;BME280;3626;42.656;23.312;2023-05-23T00:34:10;94438.13;;;10.09;100.00
7170;BME280;3626;42.656;23.312;2023-05-23T00:34:15;94439.09;;;10.08;100.00
7170;BME280;3626;42.656;23.312;2023-05-23T00:34:22;94446.81;;;10.08;100.00
7170;BME280;3626;42.656;23.312;2023-05-23T00:34:28;94447.44;;;10.10;100.00
7170;BME280;3626;42.656;23.312;2023-05-23T00:34:33;94445.84;;;10.09;100.00
7170;BME280;3626;42.656;23.312;2023-05-23T00:34:40;94445.84;;;10.09;100.00
7170;BME280;3626;42.656;23.312;2023-05-23T00:34:46;94445.84;;;10.09;100.00
7170;BME280;3626;42.656;23.312;2023-05-23T00:34:52;94442.63;;;10.07;100.00
7170;BME280;3626;42.656;23.312;2023-05-23T00:34:58;94447.63;;;10.08;100.00